createdAt,value
2018-05-25T00:00:25.536Z,2.93
2018-05-25T00:02:52.979Z,2.40
2018-05-25T00:05:21.188Z,2.50
2018-05-25T00:07:48.660Z,2.73
2018-05-25T00:10:16.123Z,2.53
2018-05-25T00:12:43.561Z,2.37
2018-05-25T00:15:11.036Z,2.37
2018-05-25T00:17:38.473Z,2.83
2018-05-25T00:20:05.919Z,2.93
2018-05-25T00:22:33.356Z,2.50
2018-05-25T00:25:01.567Z,3.37
2018-05-25T00:27:29.000Z,2.87
2018-05-25T00:29:56.448Z,3.20
2018-05-25T00:32:24.653Z,3.13
2018-05-25T00:34:52.108Z,2.83
2018-05-25T00:37:19.554Z,3.20
2018-05-25T00:39:47.001Z,3.70
2018-05-25T00:42:14.433Z,3.03
2018-05-25T00:44:42.670Z,2.47
2018-05-25T00:47:10.101Z,2.40
2018-05-25T00:49:37.543Z,2.37
2018-05-25T00:52:04.994Z,2.20
2018-05-25T00:54:32.433Z,2.67
2018-05-25T00:57:00.678Z,3.10
2018-05-25T00:59:28.108Z,2.47
2018-05-25T01:01:55.552Z,2.70
2018-05-25T01:04:23.745Z,2.20
2018-05-25T01:06:51.199Z,2.50
2018-05-25T01:09:18.637Z,3.23
2018-05-25T01:11:46.103Z,5.23
2018-05-25T01:14:13.537Z,4.13
2018-05-25T01:16:40.985Z,3.33
2018-05-25T01:19:08.415Z,2.90
2018-05-25T01:21:35.866Z,3.17
2018-05-25T01:24:03.301Z,3.20
2018-05-25T01:26:30.748Z,2.83
2018-05-25T01:28:58.216Z,3.77
2018-05-25T01:31:25.671Z,3.90
2018-05-25T01:33:53.135Z,3.90
2018-05-25T01:36:20.576Z,3.60
2018-05-25T01:38:48.025Z,4.70
2018-05-25T01:41:15.484Z,3.50
2018-05-25T01:43:42.924Z,3.60
2018-05-25T01:46:10.376Z,3.10
2018-05-25T01:48:37.812Z,3.03
2018-05-25T01:51:06.020Z,5.27
2018-05-25T01:53:33.493Z,4.40
2018-05-25T01:56:00.944Z,3.70
2018-05-25T01:58:28.401Z,3.13
2018-05-25T02:00:55.844Z,3.20
2018-05-25T02:03:23.270Z,3.10
2018-05-25T02:05:50.709Z,3.03
2018-05-25T02:08:18.907Z,2.90
2018-05-25T02:10:46.349Z,2.63
2018-05-25T02:13:14.559Z,3.10
2018-05-25T02:15:42.001Z,3.83
2018-05-25T02:18:09.441Z,4.10
2018-05-25T02:20:37.668Z,2.83
2018-05-25T02:23:05.120Z,3.20
2018-05-25T02:25:32.561Z,3.10
2018-05-25T02:28:00.025Z,2.50
2018-05-25T02:30:27.480Z,2.80
2018-05-25T02:32:54.918Z,3.00
2018-05-25T02:35:22.358Z,2.80
2018-05-25T02:37:49.796Z,3.20
2018-05-25T02:40:18.009Z,2.60
2018-05-25T02:42:45.449Z,3.30
2018-05-25T02:45:12.898Z,3.90
2018-05-25T02:47:40.338Z,3.33
2018-05-25T02:50:08.547Z,3.83
2018-05-25T02:52:36.018Z,3.00
2018-05-25T02:55:03.460Z,3.90
2018-05-25T02:57:30.906Z,3.70
2018-05-25T02:59:58.336Z,4.93
2018-05-25T03:02:26.566Z,3.77
2018-05-25T03:04:54.005Z,3.30
2018-05-25T03:07:21.477Z,3.30
2018-05-25T03:09:48.922Z,4.67
2018-05-25T03:12:16.360Z,3.90
2018-05-25T03:14:43.809Z,4.00
2018-05-25T03:17:11.275Z,3.33
2018-05-25T03:19:39.462Z,3.60
2018-05-25T03:22:06.906Z,3.90
2018-05-25T03:24:34.353Z,3.80
2018-05-25T03:27:01.785Z,3.00
2018-05-25T03:29:30.023Z,3.77
2018-05-25T03:31:57.471Z,4.70
2018-05-25T03:34:24.913Z,3.77
2018-05-25T03:36:52.356Z,4.23
2018-05-25T03:39:19.784Z,5.10
2018-05-25T03:41:48.002Z,3.77
2018-05-25T03:44:15.433Z,3.67
2018-05-25T03:46:42.881Z,3.00
2018-05-25T03:49:11.084Z,3.63
2018-05-25T03:51:38.519Z,4.50
2018-05-25T03:54:05.953Z,2.77
2018-05-25T03:59:38.245Z,3.87
2018-05-25T04:02:06.449Z,3.40
2018-05-25T04:04:33.884Z,3.30
2018-05-25T04:07:02.103Z,3.23
2018-05-25T04:09:29.546Z,3.10
2018-05-25T04:11:57.003Z,3.80
2018-05-25T04:14:24.431Z,6.17
2018-05-25T04:16:52.668Z,5.10
2018-05-25T04:19:20.101Z,4.50
2018-05-25T04:21:47.545Z,4.03
2018-05-25T04:24:14.993Z,3.83
2018-05-25T04:26:42.445Z,3.50
2018-05-25T04:29:09.893Z,3.60
2018-05-25T04:31:37.338Z,3.80
2018-05-25T04:34:05.542Z,3.60
2018-05-25T04:36:32.986Z,3.37
2018-05-25T04:39:00.404Z,3.17
2018-05-25T04:41:27.910Z,2.90
2018-05-25T04:43:55.332Z,3.90
2018-05-25T04:46:23.556Z,2.90
2018-05-25T04:48:51.030Z,2.90
2018-05-25T04:51:18.499Z,3.57
2018-05-25T04:53:45.954Z,3.00
2018-05-25T04:56:13.416Z,2.90
2018-05-25T04:58:40.835Z,2.97
2018-05-25T05:01:08.286Z,2.87
2018-05-25T05:03:35.721Z,3.03
2018-05-25T05:06:03.168Z,2.97
2018-05-25T05:08:31.365Z,2.83
2018-05-25T05:10:58.796Z,3.70
2018-05-25T05:13:26.244Z,3.43
2018-05-25T05:15:54.445Z,3.47
2018-05-25T05:18:21.889Z,3.47
2018-05-25T05:20:49.331Z,5.07
2018-05-25T05:23:17.563Z,3.90
2018-05-25T05:25:44.996Z,4.17
2018-05-25T05:28:12.436Z,6.13
2018-05-25T05:30:39.876Z,6.10
2018-05-25T05:33:08.095Z,4.33
2018-05-25T05:35:35.534Z,4.40
2018-05-25T05:38:02.980Z,6.63
2018-05-25T05:40:30.425Z,5.03
2018-05-25T05:42:58.632Z,4.40
2018-05-25T05:45:26.082Z,4.63
2018-05-25T05:47:54.220Z,4.60
2018-05-25T05:50:22.425Z,5.50
2018-05-25T05:52:49.867Z,5.27
2018-05-25T05:55:17.309Z,4.40
2018-05-25T05:57:45.550Z,5.00
2018-05-25T06:00:12.991Z,6.10
2018-05-25T06:02:41.208Z,5.00
2018-05-25T06:05:09.417Z,5.60
2018-05-25T06:07:36.871Z,7.10
2018-05-25T06:10:04.308Z,7.40
2018-05-25T06:12:31.760Z,6.07
2018-05-25T06:14:59.968Z,4.83
2018-05-25T06:17:27.644Z,5.70
2018-05-25T06:19:56.112Z,5.57
2018-05-25T06:22:23.543Z,6.30
2018-05-25T06:24:50.993Z,4.60
2018-05-25T06:27:18.454Z,4.40
2018-05-25T06:29:45.909Z,4.00
2018-05-25T06:32:13.385Z,4.40
2018-05-25T06:34:40.852Z,4.00
2018-05-25T06:37:08.297Z,4.20
2018-05-25T06:39:35.742Z,4.00
2018-05-25T06:42:03.174Z,4.93
2018-05-25T06:44:31.386Z,4.47
2018-05-25T06:46:58.833Z,4.50
2018-05-25T06:49:26.280Z,6.00
2018-05-25T06:51:53.713Z,4.93
2018-05-25T06:54:21.925Z,4.77
2018-05-25T06:56:49.365Z,3.50
2018-05-25T06:59:16.817Z,3.83
2018-05-25T07:01:45.027Z,5.00
2018-05-25T07:04:12.467Z,4.93
2018-05-25T07:06:39.900Z,4.43
2018-05-25T07:09:07.352Z,4.63
2018-05-25T07:11:35.557Z,3.60
2018-05-25T07:14:02.996Z,3.63
2018-05-25T07:16:30.441Z,3.03
2018-05-25T07:18:58.645Z,3.50
2018-05-25T07:21:26.080Z,4.33
2018-05-25T07:23:53.548Z,3.90
2018-05-25T07:26:20.999Z,3.97
2018-05-25T07:28:48.437Z,3.87
2018-05-25T07:31:16.645Z,2.60
2018-05-25T07:33:44.080Z,2.70
2018-05-25T07:36:11.524Z,3.37
2018-05-25T07:38:39.731Z,3.23
2018-05-25T07:41:07.172Z,2.60
2018-05-25T07:43:34.643Z,3.90
2018-05-25T07:46:02.161Z,4.43
2018-05-25T07:48:30.374Z,5.90
2018-05-25T07:50:57.826Z,6.50
2018-05-25T07:53:25.272Z,5.53
2018-05-25T07:55:52.708Z,4.60
2018-05-25T07:58:20.918Z,6.10
2018-05-25T08:00:48.360Z,7.83
2018-05-25T08:03:15.791Z,5.63
2018-05-25T08:05:44.005Z,5.80
2018-05-25T08:08:11.453Z,5.73
2018-05-25T08:10:38.976Z,4.43
2018-05-25T08:13:06.412Z,5.80
2018-05-25T08:15:33.856Z,6.30
2018-05-25T08:18:01.288Z,6.50
2018-05-25T08:20:28.735Z,4.33
2018-05-25T08:22:56.165Z,4.60
2018-05-25T08:25:24.381Z,5.23
2018-05-25T08:27:51.817Z,4.90
2018-05-25T08:30:19.356Z,5.10
2018-05-25T08:32:46.721Z,3.83
2018-05-25T08:35:14.156Z,3.83
2018-05-25T08:37:41.584Z,4.20
2018-05-25T08:40:09.028Z,4.63
2018-05-25T08:42:36.455Z,4.67
2018-05-25T08:45:03.899Z,4.63
2018-05-25T08:47:32.138Z,3.30
2018-05-25T08:49:59.583Z,3.77
2018-05-25T08:52:27.009Z,3.33
2018-05-25T08:54:54.444Z,3.83
2018-05-25T08:57:22.644Z,3.57
2018-05-25T08:59:50.085Z,3.13
2018-05-25T09:02:17.578Z,3.70
2018-05-25T09:04:45.057Z,3.60
2018-05-25T09:07:12.493Z,3.27
2018-05-25T09:09:39.936Z,2.90
2018-05-25T09:12:07.367Z,4.60
2018-05-25T09:14:34.818Z,4.50
2018-05-25T09:17:03.025Z,4.37
2018-05-25T09:19:30.476Z,4.67
2018-05-25T09:21:57.937Z,4.50
2018-05-25T09:24:25.374Z,4.03
2018-05-25T09:26:53.565Z,4.13
2018-05-25T09:29:21.004Z,3.47
2018-05-25T09:31:48.446Z,6.03
2018-05-25T09:34:16.646Z,4.17
2018-05-25T09:36:44.088Z,4.10
2018-05-25T09:39:11.519Z,3.60
2018-05-25T09:41:39.731Z,4.10
2018-05-25T09:44:07.163Z,3.80
2018-05-25T09:46:35.393Z,4.20
2018-05-25T09:49:02.841Z,4.00
2018-05-25T09:51:30.381Z,4.93
2018-05-25T09:53:57.837Z,6.57
2018-05-25T09:56:25.284Z,5.60
2018-05-25T09:58:52.730Z,6.13
2018-05-25T10:01:20.932Z,6.53
2018-05-25T10:03:48.368Z,6.43
2018-05-25T10:06:15.804Z,4.97
2018-05-25T10:08:44.010Z,4.87
2018-05-25T10:11:11.456Z,4.07
2018-05-25T10:13:38.883Z,4.00
2018-05-25T10:16:07.162Z,4.63
2018-05-25T10:18:35.385Z,4.87
2018-05-25T10:21:02.830Z,4.47
2018-05-25T10:23:30.252Z,3.50
2018-05-25T10:25:58.464Z,4.80
2018-05-25T10:28:25.899Z,5.03
2018-05-25T10:30:54.139Z,5.00
2018-05-25T10:33:21.570Z,4.50
2018-05-25T10:35:49.012Z,5.13
2018-05-25T10:38:16.455Z,3.40
2018-05-25T10:40:43.895Z,4.60
2018-05-25T10:43:12.100Z,5.53
2018-05-25T10:45:39.576Z,4.47
2018-05-25T10:48:07.004Z,4.90
2018-05-25T10:50:34.435Z,5.10
2018-05-25T10:53:02.640Z,3.63
2018-05-25T10:55:30.084Z,3.90
2018-05-25T10:57:57.531Z,3.20
2018-05-25T11:00:25.758Z,4.40
2018-05-25T11:02:53.196Z,3.87
2018-05-25T11:05:20.644Z,3.50
2018-05-25T11:07:48.847Z,5.27
2018-05-25T11:10:16.281Z,6.23
2018-05-25T11:12:43.728Z,6.70
2018-05-25T11:15:11.187Z,6.70
2018-05-25T11:17:38.624Z,5.50
2018-05-25T11:20:06.057Z,6.60
2018-05-25T11:22:33.503Z,5.80
2018-05-25T11:25:00.944Z,4.97
2018-05-25T11:27:28.401Z,6.10
2018-05-25T11:29:55.836Z,5.80
2018-05-25T11:32:23.341Z,5.27
2018-05-25T11:34:51.548Z,4.67
2018-05-25T11:37:19.888Z,5.33
2018-05-25T11:39:47.322Z,5.80
2018-05-25T11:42:14.788Z,4.40
2018-05-25T11:44:42.202Z,5.63
2018-05-25T11:47:09.641Z,6.50
2018-05-25T11:49:37.857Z,5.60
2018-05-25T11:52:05.331Z,5.30
2018-05-25T11:54:32.765Z,4.93
2018-05-25T11:57:00.199Z,5.97
2018-05-25T11:59:27.637Z,5.57
2018-05-25T12:01:55.855Z,5.10
2018-05-25T12:04:23.281Z,5.93
2018-05-25T12:06:50.737Z,5.80
2018-05-25T12:09:18.171Z,6.73
2018-05-25T12:11:46.378Z,6.33
2018-05-25T12:14:13.808Z,4.90
2018-05-25T12:16:42.017Z,5.13
2018-05-25T12:19:09.464Z,4.80
2018-05-25T12:21:36.905Z,4.90
2018-05-25T12:24:05.117Z,4.30
2018-05-25T12:26:32.555Z,5.37
2018-05-25T12:28:59.999Z,3.53
2018-05-25T12:31:28.241Z,4.60
2018-05-25T12:33:56.485Z,4.67
2018-05-25T12:36:23.932Z,5.90
2018-05-25T12:38:51.376Z,4.40
2018-05-25T12:41:18.812Z,2.93
2018-05-25T12:43:47.022Z,4.30
2018-05-25T12:46:14.457Z,5.03
2018-05-25T12:48:41.905Z,4.47
2018-05-25T12:51:10.105Z,4.90
2018-05-25T12:53:37.563Z,4.83
2018-05-25T12:56:04.988Z,4.83
2018-05-25T12:58:33.227Z,4.10
2018-05-25T13:01:00.665Z,4.93
2018-05-25T13:03:28.872Z,5.60
2018-05-25T13:05:56.316Z,5.60
2018-05-25T13:08:23.760Z,4.30
2018-05-25T13:10:51.198Z,5.80
2018-05-25T13:13:18.822Z,4.30
2018-05-25T13:15:46.292Z,5.20
2018-05-25T13:18:13.774Z,4.67
2018-05-25T13:20:41.253Z,4.23
2018-05-25T13:23:08.694Z,5.17
2018-05-25T13:25:36.141Z,4.57
2018-05-25T13:28:03.810Z,4.43
2018-05-25T13:30:31.308Z,4.20
2018-05-25T13:32:58.772Z,4.23
2018-05-25T13:35:26.213Z,3.70
2018-05-25T13:37:53.681Z,4.13
2018-05-25T13:40:21.137Z,5.00
2018-05-25T13:42:48.834Z,3.90
2018-05-25T13:45:17.025Z,3.37
2018-05-25T13:47:44.484Z,3.27
2018-05-25T13:50:11.925Z,2.97
2018-05-25T13:52:39.367Z,4.10
2018-05-25T13:55:07.594Z,4.10
2018-05-25T13:57:35.029Z,3.80
2018-05-25T14:00:02.468Z,3.93
2018-05-25T14:02:30.164Z,3.90
2018-05-25T14:04:57.636Z,5.30
2018-05-25T14:07:25.077Z,3.90
2018-05-25T14:09:52.508Z,4.40
2018-05-25T14:12:20.212Z,4.13
2018-05-25T14:14:48.481Z,3.30
2018-05-25T14:17:15.911Z,3.20
2018-05-25T14:19:43.394Z,3.47
2018-05-25T14:22:10.782Z,4.43
2018-05-25T14:24:38.270Z,3.40
2018-05-25T14:27:05.700Z,4.37
2018-05-25T14:29:33.916Z,3.37
2018-05-25T14:32:01.350Z,4.23
2018-05-25T14:34:28.788Z,3.20
2018-05-25T14:36:56.996Z,2.57
2018-05-25T14:39:24.531Z,4.43
2018-05-25T14:41:52.749Z,3.53
2018-05-25T14:44:20.213Z,3.47
2018-05-25T14:46:47.889Z,4.10
2018-05-25T14:49:15.329Z,3.40
2018-05-25T14:51:42.815Z,3.30
2018-05-25T14:54:11.029Z,3.73
2018-05-25T14:56:38.469Z,4.10
2018-05-25T14:59:06.788Z,3.80
2018-05-25T15:01:34.245Z,3.20
2018-05-25T15:04:01.681Z,2.77
2018-05-25T15:06:29.138Z,3.07
2018-05-25T15:08:56.560Z,2.37
2018-05-25T15:11:24.775Z,2.87
2018-05-25T15:13:52.210Z,2.63
2018-05-25T15:16:20.658Z,3.00
2018-05-25T15:18:48.104Z,2.60
2018-05-25T15:21:15.564Z,3.23
2018-05-25T15:23:43.010Z,4.80
2018-05-25T15:26:10.445Z,4.47
2018-05-25T15:28:37.940Z,4.83
2018-05-25T15:31:05.527Z,4.90
2018-05-25T15:33:32.826Z,5.90
2018-05-25T15:36:01.096Z,6.67
2018-05-25T15:38:28.520Z,6.00
2018-05-25T15:40:56.733Z,6.27
2018-05-25T15:43:24.177Z,5.57
2018-05-25T15:45:51.612Z,6.73
2018-05-25T15:48:19.045Z,6.00
2018-05-25T15:50:46.536Z,6.47
2018-05-25T15:53:14.007Z,6.10
2018-05-25T15:55:41.459Z,5.97
2018-05-25T15:58:08.897Z,4.67
2018-05-25T16:00:37.125Z,5.40
2018-05-25T16:03:04.565Z,4.97
2018-05-25T16:05:32.039Z,4.87
2018-05-25T16:07:59.486Z,4.90
2018-05-25T16:10:26.941Z,5.13
2018-05-25T16:12:54.391Z,5.13
2018-05-25T16:15:21.850Z,4.03
2018-05-25T16:17:49.290Z,4.57
2018-05-25T16:20:16.725Z,4.53
2018-05-25T16:22:44.933Z,3.90
2018-05-25T16:25:12.380Z,4.63
2018-05-25T16:27:39.823Z,4.50
2018-05-25T16:30:07.253Z,5.33
2018-05-25T16:32:35.465Z,4.57
2018-05-25T16:35:02.923Z,5.37
2018-05-25T16:37:30.368Z,5.33
2018-05-25T16:39:59.043Z,7.03
2018-05-25T16:42:28.680Z,6.03
2018-05-25T16:44:56.209Z,5.40
2018-05-25T16:47:23.654Z,5.50
2018-05-25T16:49:51.856Z,7.13
2018-05-25T16:52:19.313Z,5.33
2018-05-25T16:54:46.749Z,5.73
2018-05-25T16:57:14.957Z,5.63
2018-05-25T16:59:42.392Z,6.63
2018-05-25T17:02:10.613Z,5.47
2018-05-25T17:04:38.068Z,6.10
2018-05-25T17:07:05.512Z,5.63
2018-05-25T17:09:32.947Z,4.23
2018-05-25T17:12:00.389Z,4.77
2018-05-25T17:14:28.586Z,4.80
2018-05-25T17:16:56.028Z,4.80
2018-05-25T17:19:23.466Z,4.10
2018-05-25T17:21:51.678Z,4.47
2018-05-25T17:24:19.147Z,5.00
2018-05-25T17:26:46.606Z,5.27
2018-05-25T17:29:14.049Z,5.50
2018-05-25T17:31:41.487Z,6.40
2018-05-25T17:34:08.970Z,5.87
2018-05-25T17:36:36.457Z,6.20
2018-05-25T17:39:03.896Z,5.83
2018-05-25T17:41:31.333Z,6.80
2018-05-25T17:43:58.785Z,6.27
2018-05-25T17:46:26.225Z,4.10
2018-05-25T17:48:53.881Z,4.40
2018-05-25T17:51:21.331Z,4.40
2018-05-25T17:53:49.538Z,4.23
2018-05-25T17:56:17.007Z,4.70
2018-05-25T17:58:44.484Z,4.97
2018-05-25T18:01:11.891Z,4.37
2018-05-25T18:03:39.334Z,4.00
2018-05-25T18:06:07.584Z,3.57
2018-05-25T18:08:35.037Z,4.47
2018-05-25T18:11:02.477Z,3.70
2018-05-25T18:13:29.912Z,4.80
2018-05-25T18:15:57.576Z,4.60
2018-05-25T18:18:25.030Z,5.10
2018-05-25T18:20:52.473Z,4.37
2018-05-25T18:23:19.936Z,5.30
2018-05-25T18:25:47.385Z,5.17
2018-05-25T18:28:14.844Z,5.10
2018-05-25T18:30:42.288Z,3.73
2018-05-25T18:33:10.501Z,3.50
2018-05-25T18:35:37.934Z,3.53
2018-05-25T18:38:05.379Z,3.50
2018-05-25T18:40:32.829Z,4.13
2018-05-25T18:43:01.275Z,5.10
2018-05-25T18:45:28.715Z,5.70
2018-05-25T18:47:56.157Z,5.60
2018-05-25T18:50:23.678Z,5.40
2018-05-25T18:52:51.141Z,4.67
2018-05-25T18:55:19.583Z,4.07
2018-05-25T18:57:47.849Z,4.63
2018-05-25T19:00:15.285Z,5.57
2018-05-25T19:02:42.721Z,4.73
2018-05-25T19:05:10.162Z,4.60
2018-05-25T19:07:38.360Z,5.12
2018-05-25T19:10:05.854Z,4.10
2018-05-25T19:12:33.320Z,4.20
2018-05-25T19:15:00.768Z,4.07
2018-05-25T19:17:28.228Z,4.50
2018-05-25T19:19:56.141Z,4.83
2018-05-25T19:22:23.930Z,4.43
2018-05-25T19:24:51.778Z,5.60
2018-05-25T19:27:19.400Z,5.57
2018-05-25T19:29:48.749Z,5.70
2018-05-25T19:32:16.511Z,5.43
2018-05-25T19:34:45.181Z,4.23
2018-05-25T19:37:13.484Z,4.40
2018-05-25T19:39:41.155Z,5.20
2018-05-25T19:42:08.832Z,4.47
2018-05-25T19:44:36.623Z,3.53
2018-05-25T19:47:04.377Z,2.80
2018-05-25T19:49:31.875Z,2.77
2018-05-25T19:51:59.778Z,3.57
2018-05-25T19:54:27.619Z,2.73
2018-05-25T19:56:55.447Z,2.97
2018-05-25T19:59:23.070Z,3.00
2018-05-25T20:01:50.879Z,2.77
2018-05-25T20:04:18.705Z,2.90
2018-05-25T20:06:47.273Z,2.60
2018-05-25T20:09:15.194Z,2.97
2018-05-25T20:11:42.934Z,2.87
2018-05-25T20:14:10.701Z,2.10
2018-05-25T20:16:38.939Z,3.40
2018-05-25T20:19:06.546Z,2.30
2018-05-25T20:21:36.019Z,2.30
2018-05-25T20:24:03.462Z,2.30
2018-05-25T20:26:30.979Z,3.17
2018-05-25T20:28:59.235Z,2.77
2018-05-25T20:31:26.994Z,2.73
2018-05-25T20:33:55.235Z,2.90
2018-05-25T20:36:22.670Z,2.50
2018-05-25T20:38:50.120Z,2.80
2018-05-25T20:41:17.677Z,2.53
2018-05-25T20:43:45.113Z,2.33
2018-05-25T20:46:13.447Z,2.37
2018-05-25T20:48:41.153Z,2.33
2018-05-25T20:51:09.383Z,3.43
2018-05-25T20:53:36.845Z,3.07
2018-05-25T20:56:04.400Z,2.60
2018-05-25T20:58:31.882Z,3.30
2018-05-25T21:00:59.337Z,3.27
2018-05-25T21:03:26.786Z,3.03
2018-05-25T21:05:54.251Z,3.13
2018-05-25T21:08:21.709Z,3.03
2018-05-25T21:10:49.148Z,3.47
2018-05-25T21:13:16.585Z,3.30
2018-05-25T21:15:44.034Z,2.73
2018-05-25T21:18:11.477Z,4.50
2018-05-25T21:20:38.943Z,3.57
2018-05-25T21:23:06.381Z,3.60
2018-05-25T21:25:34.617Z,3.07
2018-05-25T21:28:02.054Z,3.40
2018-05-25T21:30:29.496Z,3.40
2018-05-25T21:32:56.925Z,3.73
2018-05-25T21:35:25.127Z,3.60
2018-05-25T21:37:52.575Z,3.50
2018-05-25T21:40:20.017Z,2.97
2018-05-25T21:42:47.519Z,2.93
2018-05-25T21:45:15.682Z,2.63
2018-05-25T21:47:43.159Z,3.40
2018-05-25T21:50:10.596Z,3.47
2018-05-25T21:52:38.061Z,3.30
2018-05-25T21:55:05.496Z,2.97
2018-05-25T21:57:32.959Z,3.73
2018-05-25T22:00:00.550Z,3.40
2018-05-25T22:02:27.993Z,3.47
2018-05-25T22:04:55.443Z,3.70
2018-05-25T22:07:22.884Z,4.40
2018-05-25T22:09:50.325Z,3.73
2018-05-25T22:12:17.886Z,3.10
2018-05-25T22:14:45.356Z,3.60
2018-05-25T22:17:12.888Z,3.23
2018-05-25T22:19:41.084Z,3.40
2018-05-25T22:22:08.747Z,3.13
2018-05-25T22:24:36.190Z,2.77
2018-05-25T22:27:03.633Z,2.83
2018-05-25T22:29:31.870Z,3.07
2018-05-25T22:31:59.329Z,3.30
2018-05-25T22:34:26.770Z,2.70
2018-05-25T22:36:54.340Z,3.47
2018-05-25T22:39:21.785Z,3.57
2018-05-25T22:41:50.041Z,4.33
2018-05-25T22:44:29.365Z,3.60
2018-05-25T22:47:08.765Z,3.47
2018-05-25T22:49:47.986Z,3.23
2018-05-25T22:52:30.720Z,3.23
2018-05-25T22:54:58.930Z,4.73
2018-05-25T22:57:26.373Z,3.90
2018-05-25T22:59:53.849Z,3.50
2018-05-25T23:02:21.296Z,3.70
2018-05-25T23:04:48.738Z,3.37
2018-05-25T23:07:16.176Z,3.30
2018-05-25T23:09:44.386Z,3.27
2018-05-25T23:12:11.823Z,3.33
2018-05-25T23:14:39.302Z,3.10
2018-05-25T23:17:06.746Z,2.77
2018-05-25T23:19:34.186Z,4.07
2018-05-25T23:22:02.387Z,3.40
2018-05-25T23:24:29.824Z,3.03
2018-05-25T23:26:57.273Z,3.83
2018-05-25T23:29:24.735Z,4.67
2018-05-25T23:31:52.201Z,3.70
2018-05-25T23:34:19.629Z,4.20
2018-05-25T23:36:47.841Z,3.50
2018-05-25T23:39:15.276Z,3.50
2018-05-25T23:41:42.729Z,3.30
2018-05-25T23:44:10.965Z,4.33
2018-05-25T23:46:38.441Z,5.37
2018-05-25T23:49:05.881Z,5.37
2018-05-25T23:51:33.324Z,4.10
2018-05-25T23:54:00.766Z,3.50
2018-05-25T23:56:28.208Z,4.03
2018-05-25T23:58:55.644Z,3.63
